Time;durP1;ratioP1;P1;durP2;ratioP2;P2;SDS_P1;SDS_P2;PMS_P1;PMS_P2;Temp;Humidity;BMP_temperature;BMP_pressure;BME280_temperature;BME280_humidity;BME280_pressure;Samples;Min_cycle;Max_cycle;Signal;HPM_P1;HPM_P2
2022/10/07 00:03:11;;;;;;;0.10;0.10;;;;;;;-145.16;100.00;79453.41;653675;217;33311;-72
2022/10/07 00:09:33;;;;;;;2.40;0.50;;;;;;;-145.16;100.00;79459.45;645173;217;33373;-73
2022/10/07 00:15:51;;;;;;;0.00;0.00;;;;;;;-145.16;100.00;79469.52;645174;218;32381;-73
2022/10/07 00:22:10;;;;;;;0.00;0.00;;;;;;;-145.16;100.00;79452.40;653670;217;32371;-73
2022/10/07 00:28:29;;;;;;;0.10;0.10;;;;;;;-145.16;100.00;79443.33;653674;218;33625;-72
2022/10/07 00:34:47;;;;;;;0.10;0.10;;;;;;;-145.16;100.00;79422.18;653668;217;33364;-73
2022/10/07 00:41:05;;;;;;;0.20;0.20;;;;;;;-145.16;100.00;79429.23;645168;218;32411;-73
2022/10/07 00:44:28;;;;;;;0.00;0.00;;;;;;;-145.16;100.00;79422.18;635203;226;23712;-73
2022/10/07 00:50:10;;;;;;;0.00;0.00;;;;;;;-145.16;100.00;79427.22;645182;218;32363;-72
2022/10/07 00:56:28;;;;;;;0.00;0.00;;;;;;;-145.16;100.00;79406.06;645166;217;34318;-73
2022/10/07 01:02:47;;;;;;;0.00;0.00;;;;;;;-145.16;100.00;79387.93;645163;217;32386;-73
2022/10/07 01:09:04;;;;;;;0.00;0.00;;;;;;;-145.16;100.00;79388.94;645183;218;32328;-73
2022/10/07 01:15:24;;;;;;;0.50;0.50;;;;;;;-145.16;100.00;79400.02;645190;217;33459;-72
2022/10/07 01:21:43;;;;;;;0.00;0.00;;;;;;;-145.16;100.00;79402.03;645159;217;33341;-73
2022/10/07 01:28:02;;;;;;;0.30;0.30;;;;;;;-145.16;100.00;79416.14;645169;217;32379;-73
2022/10/07 01:34:22;;;;;;;0.30;0.30;;;;;;;-145.16;100.00;79436.28;645178;217;33356;-73
2022/10/07 01:40:40;;;;;;;0.00;0.00;;;;;;;-145.16;100.00;79405.05;645000;218;32374;-73
2022/10/07 01:47:05;;;;;;;0.10;0.10;;;;;;;-145.16;100.00;79394.98;645005;218;33300;-73
2022/10/07 01:53:25;;;;;;;0.07;0.07;;;;;;;-145.16;100.00;79395.98;645193;217;32322;-73
2022/10/07 01:59:47;;;;;;;0.10;0.10;;;;;;;-145.16;100.00;79401.02;645177;217;33374;-73
2022/10/07 02:06:10;;;;;;;0.00;0.00;;;;;;;-145.16;100.00;79384.91;645071;217;32359;-73
2022/10/07 02:12:30;;;;;;;0.00;0.00;;;;;;;-145.16;100.00;79377.86;645178;217;32313;-73
2022/10/07 02:18:48;;;;;;;0.20;0.20;;;;;;;-145.16;100.00;79375.84;645174;217;33314;-73
2022/10/07 02:25:08;;;;;;;0.00;0.00;;;;;;;-145.16;100.00;79357.70;645035;217;33352;-73
2022/10/07 02:31:27;;;;;;;7.43;1.07;;;;;;;-145.16;100.00;79397.00;653680;217;32659;-73
2022/10/07 02:37:46;;;;;;;0.57;0.57;;;;;;;-145.16;100.00;79384.91;653666;217;32356;-73
2022/10/07 02:44:04;;;;;;;0.20;0.20;;;;;;;-145.16;100.00;79388.94;653690;217;32330;-73
2022/10/07 02:50:22;;;;;;;0.27;0.27;;;;;;;-145.16;100.00;79366.78;645156;217;33408;-73
2022/10/07 02:56:41;;;;;;;0.60;0.40;;;;;;;-145.16;100.00;79365.77;645234;217;35390;-73
2022/10/07 03:03:00;;;;;;;0.70;0.40;;;;;;;-145.16;100.00;79374.83;645250;217;34310;-73
2022/10/07 03:09:17;;;;;;;1.10;0.70;;;;;;;-145.16;100.00;79365.77;645173;218;33329;-73
2022/10/07 03:15:39;;;;;;;0.20;0.20;;;;;;;-145.16;100.00;79359.72;645013;218;33363;-73
2022/10/07 03:21:55;;;;;;;0.07;0.07;;;;;;;-145.16;100.00;79347.64;645173;218;32436;-72
2022/10/07 03:28:13;;;;;;;0.00;0.00;;;;;;;-145.16;100.00;79333.53;645172;217;32368;-73
2022/10/07 03:34:32;;;;;;;0.00;0.00;;;;;;;-145.16;100.00;79305.33;653673;217;32386;-73
2022/10/07 03:40:50;;;;;;;0.00;0.00;;;;;;;-145.16;100.00;79313.39;645163;217;32389;-72
2022/10/07 03:47:09;;;;;;;0.00;0.00;;;;;;;-145.16;100.00;79313.39;653701;217;32384;-73
2022/10/07 03:53:28;;;;;;;0.00;0.00;;;;;;;-145.16;100.00;79304.32;645166;218;32679;-73
2022/10/07 03:59:46;;;;;;;0.00;0.00;;;;;;;-145.16;100.00;79323.46;653664;217;32390;-72
2022/10/07 04:06:06;;;;;;;0.00;0.00;;;;;;;-145.16;100.00;79315.41;653652;217;33360;-72
2022/10/07 04:12:25;;;;;;;0.20;0.20;;;;;;;-145.16;100.00;79302.31;659284;217;29375;-72
2022/10/07 04:18:44;;;;;;;0.80;0.80;;;;;;;-145.16;100.00;79347.64;645143;217;33342;-73
2022/10/07 04:31:38;;;;;;;0.00;0.00;;;;;;;-145.16;100.00;79349.66;645166;217;32372;-73
2022/10/07 04:37:57;;;;;;;2.00;1.13;;;;;;;-145.16;100.00;79352.67;645158;217;32387;-73
2022/10/07 04:44:16;;;;;;;0.10;0.10;;;;;;;-145.16;100.00;79337.56;653682;217;32322;-72
2022/10/07 04:50:37;;;;;;;0.00;0.00;;;;;;;-145.16;100.00;79319.44;645175;217;32419;-73
2022/10/07 04:56:53;;;;;;;0.00;0.00;;;;;;;-145.16;100.00;79312.38;645211;218;34336;-72
2022/10/07 05:03:13;;;;;;;0.90;0.30;;;;;;;-145.16;100.00;79304.32;645025;217;32684;-73
2022/10/07 05:09:32;;;;;;;0.00;0.00;;;;;;;-145.16;100.00;79308.36;645158;217;32381;-72
2022/10/07 05:15:50;;;;;;;0.00;0.00;;;;;;;-145.16;100.00;79263.02;645167;217;32342;-73
2022/10/07 05:22:09;;;;;;;0.20;0.20;;;;;;;-145.16;100.00;79263.02;645179;217;33361;-73
2022/10/07 05:28:29;;;;;;;0.00;0.00;;;;;;;-145.16;100.00;79236.84;645032;217;32321;-72
2022/10/07 05:34:47;;;;;;;0.00;0.00;;;;;;;-145.16;100.00;79241.88;645233;217;34323;-73
2022/10/07 05:41:06;;;;;;;0.20;0.20;;;;;;;-145.16;100.00;79247.91;645179;217;32361;-73
2022/10/07 05:47:25;;;;;;;0.03;0.03;;;;;;;-145.16;100.00;79224.75;653687;217;32382;-73
2022/10/07 05:53:43;;;;;;;0.00;0.00;;;;;;;-145.16;100.00;79195.54;645181;217;34289;-73
2022/10/07 06:00:03;;;;;;;0.10;0.10;;;;;;;-145.16;100.00;79189.50;653686;217;32684;-73
2022/10/07 06:06:19;;;;;;;0.00;0.00;;;;;;;-145.16;100.00;79126.04;645175;217;32385;-73
2022/10/07 06:19:21;;;;;;;0.90;0.67;;;;;;;-145.16;100.00;78861.15;653669;217;32366;-73
2022/10/07 06:25:33;;;;;;;0.70;0.70;;;;;;;-145.16;100.00;78674.83;653687;217;32457;-73
2022/10/07 06:31:51;;;;;;;0.10;0.10;;;;;;;-145.16;100.00;78554.98;645165;218;32397;-73
2022/10/07 06:38:09;;;;;;;1.20;1.10;;;;;;;-145.16;100.00;78368.69;645144;217;32360;-74
2022/10/07 06:44:29;;;;;;;0.10;0.10;;;;;;;-145.16;100.00;78272.02;645165;218;32701;-73
2022/10/07 06:50:46;;;;;;;0.60;0.60;;;;;;;-145.16;100.00;78572.11;645245;217;35368;-73
2022/10/07 06:57:04;;;;;;;0.50;0.50;;;;;;;-145.16;100.00;78450.25;645185;217;32416;-74
2022/10/07 07:03:25;;;;;;;0.40;0.40;;;;;;;-145.16;100.00;78508.66;645056;217;32358;-74
2022/10/07 07:09:43;;;;;;;3.33;3.12;;;;;;;-145.16;100.00;78457.30;645172;217;53865;-74
2022/10/07 07:16:01;;;;;;;0.32;0.32;;;;;;;-145.16;100.00;78265.97;645179;217;32368;-73
2022/10/07 07:22:19;;;;;;;0.60;0.60;;;;;;;-145.16;100.00;78004.16;645161;217;32466;-74
2022/10/07 07:28:38;;;;;;;0.30;0.30;;;;;;;-145.16;100.00;77930.66;653664;217;32375;-74
2022/10/07 07:34:56;;;;;;;0.57;0.57;;;;;;;-145.16;100.00;77899.45;645197;218;32358;-74
2022/10/07 07:41:14;;;;;;;1.75;1.65;;;;;;;-145.16;100.00;77764.53;653694;217;32500;-74
2022/10/07 07:47:34;;;;;;;2.47;1.20;;;;;;;-145.16;100.00;77681.97;645171;217;32375;-74
2022/10/07 07:53:53;;;;;;;0.32;0.32;;;;;;;-145.16;100.00;77742.38;645171;217;32319;-72
2022/10/07 08:00:11;;;;;;;3.55;1.05;;;;;;;-145.16;100.00;77740.37;645175;218;32417;-74
2022/10/07 08:06:30;;;;;;;0.50;0.50;;;;;;;-145.16;97.75;77526.92;645170;218;32355;-72
2022/10/07 08:12:48;;;;;;;0.40;0.40;;;;;;;-145.16;98.41;77697.07;645157;217;32387;-72
2022/10/07 08:19:10;;;;;;;0.60;0.60;;;;;;;-145.16;100.00;77713.18;645165;217;43402;-74
2022/10/07 08:25:29;;;;;;;0.20;0.20;;;;;;;-145.16;100.00;77791.72;645071;218;32413;-74
2022/10/07 08:31:48;;;;;;;0.50;0.50;;;;;;;-145.16;100.00;78143.12;645176;217;32384;-74
2022/10/07 08:38:06;;;;;;;0.10;0.10;;;;;;;-145.16;100.00;78220.66;653693;218;32643;-74
2022/10/07 08:44:27;;;;;;;0.43;0.43;;;;;;;-145.16;100.00;78324.38;645207;217;32617;-74
2022/10/07 08:50:47;;;;;;;0.47;0.47;;;;;;;-145.16;100.00;78293.16;645029;217;32379;-74
2022/10/07 08:57:06;;;;;;;0.90;0.40;;;;;;;-145.16;100.00;78263.95;645191;217;32438;-74
2022/10/07 09:03:27;;;;;;;0.10;0.10;;;;;;;-145.16;100.00;78219.65;645048;218;32361;-74
2022/10/07 09:09:45;;;;;;;1.05;0.98;;;;;;;-145.16;100.00;78208.57;653689;217;32299;-74
2022/10/07 09:16:04;;;;;;;0.50;0.50;;;;;;;-145.16;100.00;78085.72;645183;218;32360;-73
2022/10/07 09:22:22;;;;;;;0.15;0.15;;;;;;;-145.16;100.00;78206.56;645183;217;32362;-74
2022/10/07 09:28:40;;;;;;;0.73;0.73;;;;;;;-145.16;100.00;78228.71;653689;217;43096;-73
2022/10/07 09:35:02;;;;;;;1.23;1.23;;;;;;;-145.16;100.00;78180.38;645181;217;32388;-74
2022/10/07 09:41:19;;;;;;;0.10;0.10;;;;;;;-145.16;100.00;78108.88;653658;217;32418;-74
2022/10/07 09:47:39;;;;;;;2.12;2.05;;;;;;;-145.16;100.00;78122.98;653651;217;32709;-74
2022/10/07 09:53:56;;;;;;;0.80;0.80;;;;;;;-145.16;100.00;78095.80;653668;218;32364;-74
2022/10/07 10:00:14;;;;;;;0.40;0.40;;;;;;;-145.16;100.00;78005.17;645149;218;32366;-73
2022/10/07 10:06:32;;;;;;;0.20;0.20;;;;;;;-145.16;100.00;78069.61;645193;217;32364;-74
2022/10/07 10:12:50;;;;;;;1.40;0.80;;;;;;;-145.16;100.00;77959.86;645174;217;32360;-74
2022/10/07 10:19:09;;;;;;;0.28;0.28;;;;;;;-145.16;100.00;77870.25;653665;217;32360;-74
2022/10/07 10:32:07;;;;;;;0.70;0.70;;;;;;;-145.16;100.00;77618.55;645186;217;32339;-74
2022/10/07 10:38:27;;;;;;;1.00;0.90;;;;;;;-145.16;100.00;77558.14;653676;218;32370;-72
2022/10/07 10:44:45;;;;;;;0.70;0.70;;;;;;;-145.16;100.00;77309.47;653678;217;32363;-72
2022/10/07 10:51:07;;;;;;;0.60;0.52;;;;;;;-145.16;96.61;77168.53;645152;217;32362;-72
2022/10/07 10:57:30;;;;;;;0.40;0.40;;;;;;;-145.16;91.22;76997.41;645170;218;43137;-72
2022/10/07 11:03:46;;;;;;;0.40;0.40;;;;;;;-145.16;87.72;77126.25;645193;218;32322;-72
2022/10/07 11:10:04;;;;;;;0.60;0.60;;;;;;;-145.16;87.00;77152.43;653573;217;32322;-72
2022/10/07 11:16:28;;;;;;;1.40;0.50;;;;;;;-145.16;83.72;77088.00;645175;217;32317;-72
2022/10/07 11:22:45;;;;;;;3.30;1.20;;;;;;;-145.16;79.17;77057.80;645197;217;32355;-73
2022/10/07 11:29:04;;;;;;;0.30;0.30;;;;;;;-145.16;86.46;77247.05;653672;218;32357;-72
2022/10/07 11:35:24;;;;;;;0.45;0.45;;;;;;;-145.16;75.98;76950.09;645172;218;32361;-75
2022/10/07 11:41:44;;;;;;;2.50;0.40;;;;;;;-145.16;86.12;77352.76;644188;218;32350;-72
2022/10/07 11:48:01;;;;;;;0.22;0.22;;;;;;;-145.16;93.16;77442.36;645175;217;43021;-74
2022/10/07 11:54:19;;;;;;;0.40;0.40;;;;;;;-145.16;91.79;77445.38;645151;217;43063;-74
2022/10/07 12:00:38;;;;;;;0.50;0.50;;;;;;;-145.16;94.58;77564.17;645173;218;32378;-75
2022/10/07 12:07:01;;;;;;;1.00;0.30;;;;;;;-145.16;95.42;77581.30;645169;218;32391;-74
2022/10/07 12:13:35;;;;;;;0.40;0.40;;;;;;;-145.16;100.00;77616.53;653693;218;32364;-74
2022/10/07 12:19:53;;;;;;;0.20;0.20;;;;;;;-145.16;100.00;77559.14;653682;217;43052;-74
2022/10/07 12:23:16;;;;;;;0.17;0.17;;;;;;;-145.16;100.00;77585.31;647423;222;22679;-74
2022/10/07 12:28:59;;;;;;;0.20;0.20;;;;;;;-145.16;100.00;77565.19;653663;218;32379;-74
2022/10/07 12:35:20;;;;;;;0.47;0.47;;;;;;;-145.16;100.00;77622.57;645062;217;32390;-75
2022/10/07 12:41:41;;;;;;;0.30;0.30;;;;;;;-145.16;100.00;77547.06;645169;217;32626;-74
2022/10/07 12:47:58;;;;;;;0.20;0.20;;;;;;;-145.16;100.00;77535.98;645146;218;32378;-75
2022/10/07 12:54:17;;;;;;;0.47;0.47;;;;;;;-145.16;100.00;77653.78;645137;217;32391;-74
2022/10/07 13:00:34;;;;;;;0.20;0.20;;;;;;;-145.16;100.00;77554.11;653692;217;32414;-75
2022/10/07 13:06:56;;;;;;;0.20;0.20;;;;;;;-145.16;100.00;77568.20;641577;217;32495;-74
2022/10/07 13:13:21;;;;;;;0.10;0.10;;;;;;;-145.16;100.00;77529.95;653677;217;32372;-74
2022/10/07 13:19:40;;;;;;;1.90;0.50;;;;;;;-145.16;100.00;77617.53;645175;217;43040;-74
2022/10/07 13:25:58;;;;;;;0.90;0.32;;;;;;;-145.16;100.00;77559.14;653677;218;43098;-74
2022/10/07 13:32:16;;;;;;;4.32;0.80;;;;;;;-145.16;100.00;77508.80;653691;217;32392;-74
2022/10/07 13:38:36;;;;;;;2.60;0.90;;;;;;;-145.16;100.00;77503.77;653693;217;32306;-74
2022/10/07 13:44:55;;;;;;;1.65;0.60;;;;;;;-145.16;100.00;77500.75;645166;217;32417;-74
2022/10/07 13:51:14;;;;;;;0.10;0.10;;;;;;;-145.16;100.00;77565.19;645180;218;32638;-74
2022/10/07 13:57:32;;;;;;;1.10;0.40;;;;;;;-145.16;100.00;77591.36;645164;217;32416;-74
2022/10/07 14:03:52;;;;;;;1.20;0.95;;;;;;;-145.16;100.00;77526.92;645007;218;32383;-74
2022/10/07 14:10:12;;;;;;;0.20;0.20;;;;;;;-145.16;100.00;77595.39;645168;217;32420;-75
2022/10/07 14:16:29;;;;;;;0.22;0.22;;;;;;;-145.16;100.00;77563.17;645186;218;32385;-74
2022/10/07 14:22:48;;;;;;;0.80;0.80;;;;;;;-145.16;100.00;77527.94;645168;217;32400;-74
2022/10/07 14:29:09;;;;;;;0.30;0.30;;;;;;;-145.16;100.00;77531.95;653632;217;32370;-73
2022/10/07 14:35:30;;;;;;;7.90;0.70;;;;;;;-145.16;100.00;77520.88;645160;218;32369;-74
2022/10/07 14:41:47;;;;;;;0.30;0.30;;;;;;;-145.16;100.00;77613.51;653670;218;32692;-74
2022/10/07 14:48:07;;;;;;;2.50;0.40;;;;;;;-145.16;100.00;77592.36;645161;218;32357;-73
2022/10/07 14:54:24;;;;;;;0.22;0.22;;;;;;;-145.16;100.00;77588.34;653654;217;32371;-74
2022/10/07 15:00:45;;;;;;;0.10;0.10;;;;;;;-145.16;100.00;77550.08;653679;218;32374;-74
2022/10/07 15:07:03;;;;;;;0.40;0.40;;;;;;;-145.16;100.00;77590.35;645160;217;32417;-74
2022/10/07 15:13:27;;;;;;;0.45;0.45;;;;;;;-145.16;100.00;77560.15;614052;229;32819;-73
2022/10/07 15:19:44;;;;;;;0.20;0.20;;;;;;;-145.16;100.00;77516.86;645174;217;32372;-74
2022/10/07 15:26:02;;;;;;;0.20;0.20;;;;;;;-145.16;100.00;77527.94;653682;217;32635;-74
2022/10/07 15:32:20;;;;;;;0.17;0.17;;;;;;;-145.16;100.00;77530.95;645188;217;32356;-74
2022/10/07 15:38:39;;;;;;;0.10;0.10;;;;;;;-145.16;100.00;77531.95;645178;218;32365;-74
2022/10/07 15:44:57;;;;;;;0.20;0.20;;;;;;;-145.16;100.00;77566.19;645164;218;32662;-74
2022/10/07 15:51:17;;;;;;;0.17;0.17;;;;;;;-145.16;100.00;77601.42;645052;218;32416;-74
2022/10/07 15:57:35;;;;;;;0.10;0.10;;;;;;;-145.16;100.00;77640.69;645165;217;32385;-74
2022/10/07 16:03:53;;;;;;;0.20;0.20;;;;;;;-145.16;100.00;77632.64;649331;217;32504;-74
2022/10/07 16:10:11;;;;;;;0.10;0.10;;;;;;;-145.16;100.00;77620.55;653569;217;32375;-74
2022/10/07 16:16:31;;;;;;;0.20;0.20;;;;;;;-145.16;100.00;77657.80;637367;217;32635;-74
2022/10/07 16:22:49;;;;;;;0.10;0.10;;;;;;;-145.16;100.00;77682.98;645155;217;32704;-74
2022/10/07 16:35:43;;;;;;;0.10;0.10;;;;;;;-145.16;100.00;77778.63;645095;218;32373;-73
2022/10/07 16:42:01;;;;;;;0.10;0.10;;;;;;;-145.16;100.00;77805.81;645105;217;32732;-73
2022/10/07 16:48:19;;;;;;;0.20;0.20;;;;;;;-145.16;100.00;77825.95;653667;217;32315;-73
2022/10/07 16:54:38;;;;;;;0.20;0.20;;;;;;;-145.16;100.00;77856.16;645187;217;32375;-73
2022/10/07 17:00:56;;;;;;;0.10;0.10;;;;;;;-145.16;100.00;77892.40;645173;217;32359;-73
2022/10/07 17:07:14;;;;;;;0.10;0.10;;;;;;;-145.16;100.00;77922.61;645168;217;32677;-73
2022/10/07 17:13:33;;;;;;;0.20;0.20;;;;;;;-145.16;100.00;77941.73;645186;217;32429;-73
2022/10/07 17:19:51;;;;;;;0.10;0.10;;;;;;;-145.16;100.00;77962.88;645199;217;32315;-73
2022/10/07 17:26:09;;;;;;;0.10;0.10;;;;;;;-145.16;100.00;78013.23;645187;217;32460;-73
2022/10/07 17:32:28;;;;;;;0.10;0.10;;;;;;;-145.16;100.00;78018.27;645183;217;33348;-73
2022/10/07 17:38:45;;;;;;;0.10;0.10;;;;;;;-145.16;100.00;78045.45;645168;218;32361;-73
2022/10/07 17:45:03;;;;;;;0.10;0.10;;;;;;;-145.16;100.00;78048.47;641363;217;53855;-73
2022/10/07 17:51:22;;;;;;;0.15;0.15;;;;;;;-145.16;100.00;78039.41;653699;217;32643;-73
2022/10/07 17:57:40;;;;;;;0.10;0.10;;;;;;;-145.16;100.00;78047.46;645261;217;35267;-73
2022/10/07 18:03:58;;;;;;;0.10;0.10;;;;;;;-145.16;100.00;78048.47;653657;217;32655;-73
2022/10/07 18:10:16;;;;;;;0.10;0.10;;;;;;;-145.16;100.00;78032.36;645186;217;32417;-73
2022/10/07 18:16:34;;;;;;;0.10;0.10;;;;;;;-145.16;100.00;78036.38;645237;218;35549;-73
2022/10/07 18:22:52;;;;;;;0.10;0.10;;;;;;;-145.16;100.00;78051.48;645254;217;34384;-73
2022/10/07 18:29:11;;;;;;;0.10;0.10;;;;;;;-145.16;100.00;78059.55;645197;218;34307;-73
2022/10/07 18:35:29;;;;;;;0.10;0.10;;;;;;;-145.16;100.00;78055.52;653684;217;32410;-73
2022/10/07 18:41:47;;;;;;;0.20;0.20;;;;;;;-145.16;100.00;78071.63;645194;217;32648;-73
2022/10/07 18:48:05;;;;;;;0.10;0.10;;;;;;;-145.16;100.00;78100.83;653699;217;32390;-73
2022/10/07 18:54:24;;;;;;;0.10;0.10;;;;;;;-145.16;100.00;78098.81;653701;217;43095;-73
2022/10/07 19:00:42;;;;;;;0.50;0.50;;;;;;;-145.16;100.00;78093.78;645173;218;43117;-73
2022/10/07 19:07:01;;;;;;;0.40;0.40;;;;;;;-145.16;100.00;78076.66;653680;217;32368;-73
2022/10/07 19:20:00;;;;;;;0.10;0.10;;;;;;;-145.16;100.00;78097.81;645175;218;32366;-73
2022/10/07 19:26:15;;;;;;;0.20;0.20;;;;;;;-145.16;100.00;78097.81;645199;217;32430;-73
2022/10/07 19:32:33;;;;;;;0.17;0.17;;;;;;;-145.16;100.00;78115.94;652870;217;32360;-73
2022/10/07 19:38:52;;;;;;;0.10;0.10;;;;;;;-145.16;100.00;78093.78;645189;218;34311;-73
2022/10/07 19:45:10;;;;;;;0.10;0.10;;;;;;;-145.16;100.00;78105.86;645177;218;32364;-72
2022/10/07 19:51:28;;;;;;;0.10;0.10;;;;;;;-145.16;100.00;78102.84;645196;217;32398;-73
2022/10/07 19:57:46;;;;;;;0.10;0.10;;;;;;;-145.16;100.00;78115.94;645184;218;32404;-73
2022/10/07 20:04:05;;;;;;;0.10;0.10;;;;;;;-145.16;100.00;78133.05;645187;217;32360;-73
2022/10/07 20:10:23;;;;;;;0.10;0.10;;;;;;;-145.16;100.00;78156.21;645186;217;32368;-73
2022/10/07 20:16:41;;;;;;;1.70;0.95;;;;;;;-145.16;100.00;78178.36;645204;218;43050;-72
2022/10/07 20:23:00;;;;;;;0.20;0.20;;;;;;;-145.16;100.00;78175.34;645175;217;32381;-73
2022/10/07 20:29:19;;;;;;;0.10;0.10;;;;;;;-145.16;100.00;78170.31;642754;218;32513;-73
2022/10/07 20:35:38;;;;;;;0.00;0.00;;;;;;;-145.16;100.00;78171.31;642183;217;33532;-73
2022/10/07 20:48:32;;;;;;;0.30;0.30;;;;;;;-145.16;100.00;78168.30;645208;217;32320;-72
2022/10/07 20:54:49;;;;;;;0.00;0.00;;;;;;;-145.16;100.00;78180.38;645199;217;32356;-72
2022/10/07 21:01:08;;;;;;;0.00;0.00;;;;;;;-145.16;100.00;78179.37;653695;217;33355;-73
2022/10/07 21:07:25;;;;;;;0.10;0.10;;;;;;;-145.16;100.00;78175.34;645177;217;43433;-72
2022/10/07 21:13:43;;;;;;;0.70;0.70;;;;;;;-145.16;100.00;78179.37;645162;217;32358;-73
2022/10/07 21:20:02;;;;;;;0.00;0.00;;;;;;;-145.16;100.00;78176.34;645198;217;32356;-73
2022/10/07 21:26:20;;;;;;;0.00;0.00;;;;;;;-145.16;100.00;78196.48;653708;218;43080;-73
2022/10/07 21:32:38;;;;;;;0.03;0.03;;;;;;;-145.16;100.00;78218.64;645202;217;32368;-73
2022/10/07 21:38:57;;;;;;;0.10;0.10;;;;;;;-145.16;100.00;78237.77;641475;217;32511;-73
2022/10/07 21:45:14;;;;;;;0.03;0.03;;;;;;;-145.16;100.00;78237.77;641720;217;34452;-73
2022/10/07 21:51:33;;;;;;;0.10;0.10;;;;;;;-145.16;100.00;78244.83;644071;218;32512;-73
2022/10/07 21:57:51;;;;;;;0.00;0.00;;;;;;;-145.16;100.00;78241.80;643336;217;33619;-73
2022/10/07 22:04:09;;;;;;;0.10;0.10;;;;;;;-145.16;100.00;78256.91;645250;218;32619;-73
2022/10/07 22:10:30;;;;;;;0.10;0.10;;;;;;;-145.16;100.00;78251.88;645011;218;32371;-73
2022/10/07 22:16:48;;;;;;;0.10;0.10;;;;;;;-145.16;100.00;78209.58;643433;217;32555;-73
2022/10/07 22:23:06;;;;;;;0.00;0.00;;;;;;;-145.16;100.00;78172.32;645151;217;34326;-73
2022/10/07 22:29:24;;;;;;;0.97;0.73;;;;;;;-145.16;100.00;78155.20;651275;217;35282;-73
2022/10/07 22:35:42;;;;;;;4.67;1.87;;;;;;;-145.16;100.00;78111.91;639205;218;34885;-73
2022/10/07 22:42:03;;;;;;;0.30;0.30;;;;;;;-145.16;100.00;78063.58;645031;217;43109;-72
2022/10/07 22:48:21;;;;;;;1.50;0.80;;;;;;;-145.16;100.00;78066.59;653689;218;32441;-72
2022/10/07 22:54:40;;;;;;;0.80;0.80;;;;;;;-145.16;100.00;78046.45;645169;218;33360;-72
2022/10/07 23:00:58;;;;;;;0.20;0.20;;;;;;;-145.16;100.00;78026.31;653694;217;32351;-73
2022/10/07 23:07:17;;;;;;;0.28;0.28;;;;;;;-145.16;100.00;78043.44;645183;217;32436;-73
2022/10/07 23:13:37;;;;;;;5.50;0.30;;;;;;;-145.16;100.00;78020.27;645046;217;32432;-72
2022/10/07 23:19:55;;;;;;;1.37;1.03;;;;;;;-145.16;100.00;78032.36;645196;217;32385;-73
2022/10/07 23:26:15;;;;;;;1.48;0.82;;;;;;;-145.16;100.00;78058.54;653658;218;32390;-73
2022/10/07 23:32:33;;;;;;;0.43;0.43;;;;;;;-145.16;100.00;78051.48;653764;217;34306;-73
2022/10/07 23:38:51;;;;;;;0.80;0.60;;;;;;;-145.16;100.00;78068.61;653698;217;32389;-72
2022/10/07 23:45:10;;;;;;;0.50;0.50;;;;;;;-145.16;100.00;78061.56;645178;217;32430;-73
2022/10/07 23:51:28;;;;;;;0.60;0.60;;;;;;;-145.16;100.00;78066.59;653698;218;32358;-73
2022/10/07 23:57:46;;;;;;;1.60;0.70;;;;;;;-145.16;100.00;78060.55;645285;217;33732;-73
